createdAt,value
2019-05-01T00:00:19.263Z,0.00
2019-05-01T00:01:19.252Z,0.00
2019-05-01T00:02:19.254Z,0.00
2019-05-01T00:03:19.228Z,0.00
2019-05-01T00:04:19.220Z,0.00
2019-05-01T00:05:24.244Z,0.00
2019-05-01T00:06:19.194Z,0.00
2019-05-01T00:07:19.196Z,0.00
2019-05-01T00:08:19.175Z,0.00
2019-05-01T00:09:19.162Z,0.00
2019-05-01T00:10:19.148Z,0.00
2019-05-01T00:11:19.150Z,0.00
2019-05-01T00:12:19.136Z,0.00
2019-05-01T00:13:19.127Z,0.00
2019-05-01T00:14:19.115Z,0.00
2019-05-01T00:15:19.093Z,0.00
2019-05-01T00:16:24.116Z,0.00
2019-05-01T00:17:19.106Z,0.00
2019-05-01T00:18:19.073Z,0.00
2019-05-01T00:19:19.048Z,0.00
2019-05-01T00:20:19.041Z,0.00
2019-05-01T00:21:19.024Z,0.00
2019-05-01T00:22:19.032Z,0.00
2019-05-01T00:23:19.007Z,0.00
2019-05-01T00:24:18.991Z,0.00
2019-05-01T00:25:18.982Z,0.00
2019-05-01T00:26:18.968Z,0.00
2019-05-01T00:27:23.994Z,0.00
2019-05-01T00:28:18.947Z,0.00
2019-05-01T00:29:18.933Z,0.00
2019-05-01T00:30:29.337Z,0.00
2019-05-01T00:31:19.962Z,0.00
2019-05-01T00:32:18.915Z,0.00
2019-05-01T00:33:18.888Z,0.00
2019-05-01T00:34:18.879Z,0.00
2019-05-01T00:35:18.866Z,0.00
2019-05-01T00:36:18.864Z,0.00
2019-05-01T00:37:18.859Z,0.00
2019-05-01T00:38:23.857Z,0.00
2019-05-01T00:39:18.821Z,0.00
2019-05-01T00:40:18.851Z,0.00
2019-05-01T00:41:18.797Z,0.00
2019-05-01T00:42:18.797Z,0.00
2019-05-01T00:43:18.775Z,0.00
2019-05-01T00:44:18.768Z,0.00
2019-05-01T00:45:18.752Z,0.00
2019-05-01T00:46:18.742Z,0.00
2019-05-01T00:47:18.747Z,0.00
2019-05-01T00:48:18.728Z,0.00
2019-05-01T00:49:23.736Z,0.00
2019-05-01T00:50:18.695Z,0.00
2019-05-01T00:51:18.684Z,0.00
2019-05-01T00:52:18.674Z,0.00
2019-05-01T00:53:18.676Z,0.00
2019-05-01T00:54:18.653Z,0.00
2019-05-01T00:55:18.639Z,0.00
2019-05-01T00:56:18.628Z,0.00
2019-05-01T00:57:18.618Z,0.00
2019-05-01T00:58:18.617Z,0.00
2019-05-01T00:59:18.611Z,0.00
2019-05-01T01:00:23.610Z,0.00
2019-05-01T01:01:18.571Z,0.00
2019-05-01T01:02:18.561Z,0.00
2019-05-01T01:03:18.563Z,0.00
2019-05-01T01:04:18.544Z,0.00
2019-05-01T01:05:18.529Z,0.00
2019-05-01T01:06:18.514Z,0.00
2019-05-01T01:07:18.503Z,0.00
2019-05-01T01:08:18.507Z,0.00
2019-05-01T01:09:18.492Z,0.00
2019-05-01T01:10:18.513Z,0.00
2019-05-01T01:11:23.487Z,0.00
2019-05-01T01:12:18.452Z,0.00
2019-05-01T01:13:18.466Z,0.00
2019-05-01T01:14:18.424Z,0.00
2019-05-01T01:15:18.421Z,0.00
2019-05-01T01:16:18.407Z,0.00
2019-05-01T01:17:18.398Z,0.00
2019-05-01T01:18:18.405Z,0.00
2019-05-01T01:19:18.370Z,0.00
2019-05-01T01:20:18.376Z,0.00
2019-05-01T01:21:18.350Z,0.00
2019-05-01T01:22:23.386Z,0.00
2019-05-01T01:23:18.345Z,0.00
2019-05-01T01:24:18.342Z,0.00
2019-05-01T01:25:18.324Z,0.00
2019-05-01T01:26:18.292Z,0.00
2019-05-01T01:27:18.283Z,0.00
2019-05-01T01:28:18.311Z,0.00
2019-05-01T01:29:18.280Z,0.00
2019-05-01T01:30:18.248Z,0.00
2019-05-01T01:31:18.232Z,0.00
2019-05-01T01:32:18.229Z,0.00
2019-05-01T01:33:23.274Z,0.00
2019-05-01T01:34:18.221Z,0.00
2019-05-01T01:35:18.194Z,0.00
2019-05-01T01:36:18.177Z,0.00
2019-05-01T01:37:18.184Z,0.00
2019-05-01T01:38:18.169Z,0.00
2019-05-01T01:39:18.141Z,0.00
2019-05-01T01:40:18.155Z,0.00
2019-05-01T01:41:18.121Z,0.00
2019-05-01T01:42:18.108Z,0.00
2019-05-01T01:43:18.115Z,0.00
2019-05-01T01:44:23.108Z,0.00
2019-05-01T01:45:18.107Z,0.00
2019-05-01T01:46:18.082Z,0.00
2019-05-01T01:47:18.064Z,0.00
2019-05-01T01:48:18.079Z,0.00
2019-05-01T01:49:18.037Z,0.00
2019-05-01T01:50:18.049Z,0.00
2019-05-01T01:51:18.017Z,0.00
2019-05-01T01:52:17.997Z,0.00
2019-05-01T01:53:18.021Z,0.00
2019-05-01T01:54:17.979Z,0.00
2019-05-01T01:55:22.987Z,0.00
2019-05-01T01:56:17.961Z,0.00
2019-05-01T01:57:17.984Z,0.00
2019-05-01T01:58:17.927Z,0.00
2019-05-01T01:59:17.934Z,0.00
2019-05-01T02:00:17.910Z,0.00
2019-05-01T02:01:17.905Z,0.00
2019-05-01T02:02:17.898Z,0.00
2019-05-01T02:03:17.873Z,0.00
2019-05-01T02:04:17.904Z,0.00
2019-05-01T02:05:17.858Z,0.00
2019-05-01T02:06:22.865Z,0.00
2019-05-01T02:07:17.832Z,0.00
2019-05-01T02:08:17.818Z,0.00
2019-05-01T02:09:17.836Z,0.00
2019-05-01T02:10:17.872Z,0.00
2019-05-01T02:11:17.787Z,0.00
2019-05-01T02:12:17.778Z,0.00
2019-05-01T02:13:17.760Z,0.00
2019-05-01T02:14:17.782Z,0.00
2019-05-01T02:15:17.755Z,0.00
2019-05-01T02:16:17.730Z,0.00
2019-05-01T02:17:22.747Z,0.00
2019-05-01T02:18:17.709Z,0.00
2019-05-01T02:19:17.770Z,0.00
2019-05-01T02:20:17.684Z,0.00
2019-05-01T02:21:17.671Z,0.00
2019-05-01T02:22:17.659Z,0.00
2019-05-01T02:23:17.652Z,0.00
2019-05-01T02:24:17.684Z,0.00
2019-05-01T02:25:17.662Z,0.00
2019-05-01T02:26:17.631Z,0.00
2019-05-01T02:27:17.604Z,0.00
2019-05-01T02:28:22.634Z,0.00
2019-05-01T02:29:17.593Z,0.00
2019-05-01T02:30:17.598Z,0.00
2019-05-01T02:31:27.386Z,0.00
2019-05-01T02:32:18.560Z,0.00
2019-05-01T02:33:17.543Z,0.00
2019-05-01T02:34:17.551Z,0.00
2019-05-01T02:35:17.522Z,0.00
2019-05-01T02:36:17.524Z,0.00
2019-05-01T02:37:17.487Z,0.00
2019-05-01T02:38:17.494Z,0.00
2019-05-01T02:39:22.566Z,0.00
2019-05-01T02:40:17.454Z,0.00
2019-05-01T02:41:17.466Z,0.00
2019-05-01T02:42:17.434Z,0.00
2019-05-01T02:43:17.431Z,0.00
2019-05-01T02:44:17.447Z,0.00
2019-05-01T02:45:17.410Z,0.00
2019-05-01T02:46:17.393Z,0.00
2019-05-01T02:47:17.404Z,0.00
2019-05-01T02:48:17.376Z,0.00
2019-05-01T02:49:17.365Z,0.00
2019-05-01T02:50:22.396Z,0.00
2019-05-01T02:51:17.331Z,0.00
2019-05-01T02:52:17.335Z,0.00
2019-05-01T02:53:17.340Z,0.00
2019-05-01T02:54:17.316Z,0.00
2019-05-01T02:55:17.316Z,0.00
2019-05-01T02:56:17.305Z,0.00
2019-05-01T02:57:17.273Z,0.00
2019-05-01T02:58:17.271Z,0.00
2019-05-01T02:59:17.423Z,0.00
2019-05-01T03:00:17.233Z,0.00
2019-05-01T03:01:22.284Z,0.00
2019-05-01T03:02:17.228Z,0.00
2019-05-01T03:03:17.222Z,0.00
2019-05-01T03:04:17.209Z,0.00
2019-05-01T03:05:17.225Z,0.00
2019-05-01T03:06:17.217Z,0.00
2019-05-01T03:07:17.170Z,0.00
2019-05-01T03:08:17.154Z,0.00
2019-05-01T03:09:17.134Z,0.00
2019-05-01T03:10:17.138Z,0.00
2019-05-01T03:11:17.126Z,0.00
2019-05-01T03:12:22.120Z,0.00
2019-05-01T03:13:17.102Z,0.00
2019-05-01T03:14:17.109Z,0.00
2019-05-01T03:15:17.088Z,0.00
2019-05-01T03:16:17.051Z,0.00
2019-05-01T03:17:17.086Z,0.00
2019-05-01T03:18:17.138Z,0.00
2019-05-01T03:19:17.041Z,0.00
2019-05-01T03:20:17.028Z,0.00
2019-05-01T03:21:16.997Z,0.00
2019-05-01T03:22:16.989Z,0.00
2019-05-01T03:23:21.998Z,0.00
2019-05-01T03:24:16.979Z,0.00
2019-05-01T03:25:17.139Z,0.00
2019-05-01T03:26:16.962Z,0.00
2019-05-01T03:27:16.949Z,0.00
2019-05-01T03:28:16.923Z,0.00
2019-05-01T03:29:16.906Z,0.00
2019-05-01T03:30:16.931Z,0.00
2019-05-01T03:31:16.901Z,0.00
2019-05-01T03:32:19.562Z,0.00
2019-05-01T03:33:16.867Z,0.00
2019-05-01T03:34:21.888Z,0.00
2019-05-01T03:35:16.883Z,0.00
2019-05-01T03:36:16.830Z,0.00
2019-05-01T03:37:16.822Z,0.00
2019-05-01T03:38:16.840Z,0.00
2019-05-01T03:39:16.796Z,0.00
2019-05-01T03:40:16.813Z,0.00
2019-05-01T03:41:16.788Z,0.00
2019-05-01T03:42:16.771Z,0.00
2019-05-01T03:43:16.775Z,0.00
2019-05-01T03:44:16.745Z,0.00
2019-05-01T03:45:21.771Z,0.00
2019-05-01T03:46:16.721Z,0.00
2019-05-01T03:47:16.732Z,0.00
2019-05-01T03:48:16.697Z,0.00
2019-05-01T03:49:16.715Z,0.00
2019-05-01T03:50:16.698Z,0.00
2019-05-01T03:51:16.672Z,0.00
2019-05-01T03:52:16.664Z,0.00
2019-05-01T03:53:16.649Z,0.00
2019-05-01T03:54:16.630Z,0.00
2019-05-01T03:55:16.663Z,0.00
2019-05-01T03:56:21.636Z,0.00
2019-05-01T03:57:16.607Z,0.00
2019-05-01T03:58:16.598Z,0.00
2019-05-01T03:59:16.589Z,0.00
2019-05-01T04:00:16.597Z,0.00
2019-05-01T04:01:16.570Z,0.00
2019-05-01T04:02:32.297Z,0.00
2019-05-01T04:03:17.532Z,0.00
2019-05-01T04:04:16.538Z,0.00
2019-05-01T04:05:16.513Z,0.00
2019-05-01T04:06:16.533Z,0.00
2019-05-01T04:07:21.522Z,0.00
2019-05-01T04:08:16.485Z,0.00
2019-05-01T04:09:16.474Z,0.00
2019-05-01T04:10:16.453Z,0.00
2019-05-01T04:11:16.485Z,0.00
2019-05-01T04:12:16.423Z,0.00
2019-05-01T04:13:16.435Z,5.62
2019-05-01T04:14:16.408Z,5.62
2019-05-01T04:15:16.396Z,5.62
2019-05-01T04:16:16.411Z,5.62
2019-05-01T04:17:16.378Z,5.62
2019-05-01T04:18:21.382Z,5.62
2019-05-01T04:19:16.411Z,5.62
2019-05-01T04:20:16.331Z,5.62
2019-05-01T04:21:16.380Z,5.62
2019-05-01T04:22:16.342Z,5.62
2019-05-01T04:23:16.309Z,5.62
2019-05-01T04:24:16.308Z,5.62
2019-05-01T04:25:16.317Z,11.25
2019-05-01T04:26:16.297Z,11.25
2019-05-01T04:27:16.270Z,11.25
2019-05-01T04:28:16.253Z,11.25
2019-05-01T04:29:21.258Z,11.25
2019-05-01T04:30:16.222Z,11.25
2019-05-01T04:31:16.237Z,11.25
2019-05-01T04:32:16.250Z,11.25
2019-05-01T04:33:16.196Z,11.25
2019-05-01T04:34:16.173Z,11.25
2019-05-01T04:35:16.170Z,16.88
2019-05-01T04:36:16.169Z,16.88
2019-05-01T04:37:16.143Z,16.88
2019-05-01T04:38:16.243Z,16.88
2019-05-01T04:39:16.132Z,16.88
2019-05-01T04:40:21.156Z,16.88
2019-05-01T04:41:16.114Z,16.88
2019-05-01T04:42:16.107Z,22.50
2019-05-01T04:43:16.082Z,22.50
2019-05-01T04:44:16.072Z,22.50
2019-05-01T04:45:16.050Z,22.50
2019-05-01T04:46:16.158Z,22.50
2019-05-01T04:47:16.040Z,22.50
2019-05-01T04:48:16.020Z,22.50
2019-05-01T04:49:17.993Z,28.12
2019-05-01T04:50:15.995Z,28.12
2019-05-01T04:51:21.201Z,28.12
2019-05-01T04:52:15.970Z,28.12
2019-05-01T04:53:15.974Z,28.12
2019-05-01T04:54:15.950Z,28.12
2019-05-01T04:55:15.939Z,28.12
2019-05-01T04:56:15.941Z,33.75
2019-05-01T04:57:15.925Z,33.75
2019-05-01T04:58:15.922Z,33.75
2019-05-01T04:59:15.906Z,33.75
2019-05-01T05:00:15.878Z,33.75
2019-05-01T05:01:15.878Z,33.75
2019-05-01T05:02:20.901Z,33.75
2019-05-01T05:03:15.846Z,39.38
2019-05-01T05:04:15.855Z,39.38
2019-05-01T05:05:15.834Z,39.38
2019-05-01T05:06:15.814Z,39.38
2019-05-01T05:07:15.813Z,39.38
2019-05-01T05:08:15.796Z,39.38
2019-05-01T05:09:15.801Z,39.38
2019-05-01T05:10:15.778Z,39.38
2019-05-01T05:11:15.756Z,39.38
2019-05-01T05:12:15.774Z,39.38
2019-05-01T05:13:20.765Z,39.38
2019-05-01T05:14:15.732Z,39.38
2019-05-01T05:15:15.753Z,45.00
2019-05-01T05:16:15.719Z,45.00
2019-05-01T05:17:16.115Z,45.00
2019-05-01T05:18:15.679Z,45.00
2019-05-01T05:19:15.665Z,45.00
2019-05-01T05:20:15.679Z,45.00
2019-05-01T05:21:15.640Z,45.00
2019-05-01T05:22:16.592Z,45.00
2019-05-01T05:23:15.616Z,45.00
2019-05-01T05:24:20.630Z,50.62
2019-05-01T05:25:15.597Z,50.62
2019-05-01T05:26:15.585Z,50.62
2019-05-01T05:27:15.584Z,56.25
2019-05-01T05:28:15.561Z,61.88
2019-05-01T05:29:15.550Z,61.88
2019-05-01T05:30:15.540Z,61.88
2019-05-01T05:31:15.531Z,61.88
2019-05-01T05:32:15.527Z,61.88
2019-05-01T05:33:18.441Z,67.50
2019-05-01T05:34:18.050Z,61.88
2019-05-01T05:35:20.507Z,61.88
2019-05-01T05:36:15.481Z,61.88
2019-05-01T05:37:15.475Z,61.88
2019-05-01T05:38:15.449Z,61.88
2019-05-01T05:39:15.437Z,67.50
2019-05-01T05:40:15.426Z,61.88
2019-05-01T05:41:15.416Z,61.88
2019-05-01T05:42:15.414Z,61.88
2019-05-01T05:43:15.390Z,67.50
2019-05-01T05:44:15.381Z,67.50
2019-05-01T05:45:15.370Z,67.50
2019-05-01T05:46:20.380Z,67.50
2019-05-01T05:47:15.359Z,73.12
2019-05-01T05:48:15.336Z,73.12
2019-05-01T05:49:15.324Z,73.12
2019-05-01T05:50:15.316Z,73.12
2019-05-01T05:51:15.303Z,73.12
2019-05-01T05:52:15.310Z,73.12
2019-05-01T05:53:15.287Z,73.12
2019-05-01T05:54:15.271Z,78.75
2019-05-01T05:55:15.257Z,78.75
2019-05-01T05:56:15.249Z,84.38
2019-05-01T05:57:20.278Z,84.38
2019-05-01T05:58:15.224Z,84.38
2019-05-01T05:59:15.211Z,90.00
2019-05-01T06:00:15.201Z,95.62
2019-05-01T06:01:15.189Z,106.88
2019-05-01T06:02:15.254Z,123.75
2019-05-01T06:03:15.178Z,135.00
2019-05-01T06:04:15.158Z,135.00
2019-05-01T06:05:15.146Z,146.25
2019-05-01T06:06:15.133Z,140.62
2019-05-01T06:07:15.120Z,129.38
2019-05-01T06:08:20.144Z,112.50
2019-05-01T06:09:15.653Z,118.12
2019-05-01T06:10:18.529Z,135.00
2019-05-01T06:11:16.085Z,151.88
2019-05-01T06:12:15.066Z,157.50
2019-05-01T06:13:17.876Z,135.00
2019-05-01T06:14:16.043Z,112.50
2019-05-01T06:15:15.036Z,112.50
2019-05-01T06:16:16.287Z,123.75
2019-05-01T06:17:15.014Z,135.00
2019-05-01T06:18:15.012Z,118.12
2019-05-01T06:19:20.006Z,118.12
2019-05-01T06:20:14.973Z,106.88
2019-05-01T06:21:14.964Z,106.88
2019-05-01T06:22:14.952Z,106.88
2019-05-01T06:23:15.776Z,112.50
2019-05-01T06:24:15.927Z,112.50
2019-05-01T06:25:22.638Z,112.50
2019-05-01T06:26:15.910Z,123.75
2019-05-01T06:27:15.105Z,123.75
2019-05-01T06:28:14.909Z,123.75
2019-05-01T06:29:14.873Z,135.00
2019-05-01T06:30:19.882Z,146.25
2019-05-01T06:31:17.721Z,157.50
2019-05-01T06:32:15.835Z,151.88
2019-05-01T06:33:14.846Z,151.88
2019-05-01T06:34:14.815Z,151.88
2019-05-01T06:35:14.803Z,168.75
2019-05-01T06:36:14.797Z,180.00
2019-05-01T06:37:14.779Z,196.88
2019-05-01T06:38:14.769Z,208.12
2019-05-01T06:39:14.772Z,219.38
2019-05-01T06:40:18.720Z,219.38
2019-05-01T06:41:20.756Z,191.25
2019-05-01T06:42:16.768Z,191.25
2019-05-01T06:43:14.712Z,213.75
2019-05-01T06:44:14.713Z,264.38
2019-05-01T06:45:16.858Z,270.00
2019-05-01T06:46:14.679Z,264.38
2019-05-01T06:47:14.670Z,247.50
2019-05-01T06:48:17.807Z,213.75
2019-05-01T06:49:14.656Z,168.75
2019-05-01T06:50:14.633Z,157.50
2019-05-01T06:51:17.870Z,157.50
2019-05-01T06:52:19.634Z,180.00
2019-05-01T06:53:14.609Z,236.25
2019-05-01T06:54:16.693Z,236.25
2019-05-01T06:55:14.584Z,208.12
2019-05-01T06:56:14.575Z,174.38
2019-05-01T06:57:14.554Z,185.62
2019-05-01T06:58:14.803Z,180.00
2019-05-01T06:59:15.546Z,168.75
2019-05-01T07:00:14.525Z,157.50
2019-05-01T07:01:18.878Z,202.50
2019-05-01T07:02:16.126Z,180.00
2019-05-01T07:03:19.519Z,140.62
2019-05-01T07:04:14.486Z,140.62
2019-05-01T07:05:16.369Z,151.88
2019-05-01T07:06:14.674Z,185.62
2019-05-01T07:07:25.040Z,202.50
2019-05-01T07:08:24.324Z,174.38
2019-05-01T07:09:27.317Z,185.62
2019-05-01T07:10:15.405Z,213.75
2019-05-01T07:11:15.507Z,185.62
2019-05-01T07:12:14.381Z,135.00
2019-05-01T07:13:14.385Z,135.00
2019-05-01T07:14:19.399Z,135.00
2019-05-01T07:15:14.347Z,135.00
2019-05-01T07:16:14.335Z,129.38
2019-05-01T07:17:14.833Z,135.00
2019-05-01T07:18:14.314Z,135.00
2019-05-01T07:19:14.319Z,135.00
2019-05-01T07:20:16.795Z,135.00
2019-05-01T07:21:14.285Z,135.00
2019-05-01T07:22:14.266Z,140.62
2019-05-01T07:23:17.309Z,140.62
2019-05-01T07:24:14.262Z,129.38
2019-05-01T07:25:19.254Z,135.00
2019-05-01T07:26:14.828Z,129.38
2019-05-01T07:27:14.209Z,135.00
2019-05-01T07:28:14.202Z,135.00
2019-05-01T07:29:14.205Z,140.62
2019-05-01T07:30:15.842Z,163.12
2019-05-01T07:31:15.165Z,163.12
2019-05-01T07:32:15.117Z,135.00
2019-05-01T07:33:16.561Z,140.62
2019-05-01T07:34:16.765Z,140.62
2019-05-01T07:35:14.127Z,135.00
2019-05-01T07:36:19.133Z,140.62
2019-05-01T07:37:14.091Z,140.62
2019-05-01T07:38:14.082Z,140.62
2019-05-01T07:39:14.742Z,140.62
2019-05-01T07:40:14.079Z,146.25
2019-05-01T07:41:14.046Z,151.88
2019-05-01T07:42:14.065Z,140.62
2019-05-01T07:43:14.034Z,140.62
2019-05-01T07:44:14.038Z,140.62
2019-05-01T07:45:14.015Z,140.62
2019-05-01T07:46:18.467Z,140.62
2019-05-01T07:47:20.020Z,140.62
2019-05-01T07:48:13.963Z,140.62
2019-05-01T07:49:17.645Z,146.25
2019-05-01T07:50:13.954Z,140.62
2019-05-01T07:51:13.932Z,146.25
2019-05-01T07:52:17.218Z,146.25
2019-05-01T07:53:13.908Z,146.25
2019-05-01T07:54:13.898Z,151.88
2019-05-01T07:55:18.329Z,157.50
2019-05-01T07:56:13.872Z,157.50
2019-05-01T07:57:13.861Z,157.50
2019-05-01T07:58:18.872Z,151.88
2019-05-01T07:59:13.863Z,151.88
2019-05-01T08:00:13.847Z,151.88
2019-05-01T08:01:18.274Z,157.50
2019-05-01T08:02:14.806Z,157.50
2019-05-01T08:03:13.818Z,168.75
2019-05-01T08:04:18.068Z,168.75
2019-05-01T08:05:14.785Z,174.38
2019-05-01T08:06:16.371Z,202.50
2019-05-01T08:07:14.744Z,202.50
2019-05-01T08:08:13.734Z,196.88
2019-05-01T08:09:18.744Z,208.12
2019-05-01T08:10:13.745Z,202.50
2019-05-01T08:11:13.705Z,196.88
2019-05-01T08:12:14.473Z,185.62
2019-05-01T08:13:13.677Z,180.00
2019-05-01T08:14:16.680Z,180.00
2019-05-01T08:15:13.671Z,219.38
2019-05-01T08:16:13.645Z,264.38
2019-05-01T08:17:18.044Z,264.38
2019-05-01T08:18:14.618Z,292.50
2019-05-01T08:19:13.608Z,253.12
2019-05-01T08:20:18.633Z,196.88
2019-05-01T08:21:13.588Z,213.75
2019-05-01T08:22:13.578Z,219.38
2019-05-01T08:23:13.734Z,230.62
2019-05-01T08:24:13.554Z,219.38
2019-05-01T08:25:13.617Z,264.38
2019-05-01T08:26:13.542Z,253.12
2019-05-01T08:27:15.660Z,264.38
2019-05-01T08:28:14.507Z,286.88
2019-05-01T08:29:13.511Z,230.62
2019-05-01T08:30:17.467Z,213.75
2019-05-01T08:31:23.053Z,208.12
2019-05-01T08:32:14.465Z,202.50
2019-05-01T08:33:14.775Z,196.88
2019-05-01T08:34:13.442Z,191.25
2019-05-01T08:35:13.426Z,202.50
2019-05-01T08:36:13.581Z,241.88
2019-05-01T08:37:13.412Z,213.75
2019-05-01T08:38:13.397Z,348.75
2019-05-01T08:39:13.979Z,635.62
2019-05-01T08:40:15.967Z,534.38
2019-05-01T08:41:14.378Z,320.62
2019-05-01T08:42:18.370Z,196.88
2019-05-01T08:43:13.778Z,185.62
2019-05-01T08:44:13.339Z,196.88
2019-05-01T08:45:13.315Z,219.38
2019-05-01T08:46:16.422Z,213.75
2019-05-01T08:47:13.291Z,191.25
2019-05-01T08:48:13.315Z,191.25
2019-05-01T08:49:13.272Z,191.25
2019-05-01T08:50:13.268Z,213.75
2019-05-01T08:51:13.265Z,219.38
2019-05-01T08:52:14.047Z,213.75
2019-05-01T08:53:22.019Z,253.12
2019-05-01T08:54:13.244Z,286.88
2019-05-01T08:55:13.206Z,225.00
2019-05-01T08:56:16.971Z,196.88
2019-05-01T08:57:14.177Z,225.00
2019-05-01T08:58:14.007Z,230.62
2019-05-01T08:59:13.162Z,225.00
2019-05-01T09:00:13.145Z,236.25
2019-05-01T09:01:15.043Z,225.00
2019-05-01T09:02:13.156Z,219.38
2019-05-01T09:03:13.701Z,225.00
2019-05-01T09:04:18.857Z,275.62
2019-05-01T09:05:27.715Z,286.88
2019-05-01T09:06:14.091Z,236.25
2019-05-01T09:07:14.684Z,253.12
2019-05-01T09:08:14.053Z,630.00
2019-05-01T09:09:13.043Z,984.38
2019-05-01T09:10:17.007Z,978.75
2019-05-01T09:11:14.048Z,562.50
2019-05-01T09:12:13.602Z,376.88
2019-05-01T09:13:13.004Z,303.75
2019-05-01T09:14:12.985Z,247.50
2019-05-01T09:15:17.995Z,219.38
2019-05-01T09:16:12.975Z,219.38
2019-05-01T09:17:12.953Z,225.00
2019-05-01T09:18:12.940Z,354.38
2019-05-01T09:19:12.930Z,635.62
2019-05-01T09:20:12.922Z,348.75
2019-05-01T09:21:12.920Z,275.62
2019-05-01T09:22:12.896Z,331.88
2019-05-01T09:23:14.444Z,230.62
2019-05-01T09:24:12.890Z,219.38
2019-05-01T09:25:12.869Z,225.00
2019-05-01T09:26:17.893Z,236.25
2019-05-01T09:27:12.840Z,230.62
2019-05-01T09:28:12.829Z,230.62
2019-05-01T09:29:16.106Z,388.12
2019-05-01T09:30:12.810Z,444.38
2019-05-01T09:31:12.804Z,230.62
2019-05-01T09:32:12.801Z,461.25
2019-05-01T09:33:12.775Z,303.75
2019-05-01T09:34:13.965Z,540.00
2019-05-01T09:35:15.867Z,343.12
2019-05-01T09:36:12.739Z,241.88
2019-05-01T09:37:17.760Z,236.25
2019-05-01T09:38:12.715Z,236.25
2019-05-01T09:39:12.707Z,253.12
2019-05-01T09:40:12.702Z,320.62
2019-05-01T09:41:12.696Z,258.75
2019-05-01T09:42:12.682Z,236.25
2019-05-01T09:43:12.660Z,230.62
2019-05-01T09:44:12.650Z,230.62
2019-05-01T09:45:12.641Z,247.50
2019-05-01T09:46:12.625Z,281.25
2019-05-01T09:47:12.632Z,241.88
2019-05-01T09:48:17.630Z,236.25
2019-05-01T09:49:14.329Z,241.88
2019-05-01T09:50:13.579Z,241.88
2019-05-01T09:51:12.569Z,253.12
2019-05-01T09:52:12.575Z,247.50
2019-05-01T09:53:12.559Z,247.50
2019-05-01T09:54:12.535Z,247.50
2019-05-01T09:55:12.526Z,247.50
2019-05-01T09:56:12.521Z,253.12
2019-05-01T09:57:12.522Z,253.12
2019-05-01T09:58:12.493Z,258.75
2019-05-01T09:59:19.079Z,264.38
2019-05-01T10:00:12.471Z,354.38
2019-05-01T10:01:12.457Z,331.88
2019-05-01T10:02:12.458Z,320.62
2019-05-01T10:03:13.081Z,371.25
2019-05-01T10:04:12.423Z,399.38
2019-05-01T10:05:12.413Z,568.12
2019-05-01T10:06:12.808Z,613.12
2019-05-01T10:07:12.411Z,1108.12
2019-05-01T10:08:12.426Z,2030.62
2019-05-01T10:09:16.908Z,2109.38
2019-05-01T10:10:18.377Z,1411.88
2019-05-01T10:11:12.350Z,292.50
2019-05-01T10:12:13.174Z,275.62
2019-05-01T10:13:12.327Z,258.75
2019-05-01T10:14:12.310Z,292.50
2019-05-01T10:15:12.327Z,298.12
2019-05-01T10:16:12.294Z,292.50
2019-05-01T10:17:13.567Z,286.88
2019-05-01T10:18:12.278Z,230.62
2019-05-01T10:19:12.255Z,230.62
2019-05-01T10:20:12.242Z,343.12
2019-05-01T10:21:17.254Z,405.00
2019-05-01T10:22:12.220Z,725.62
2019-05-01T10:23:13.206Z,826.88
2019-05-01T10:24:12.200Z,354.38
2019-05-01T10:25:13.451Z,320.62
2019-05-01T10:26:12.176Z,303.75
2019-05-01T10:27:12.164Z,286.88
2019-05-01T10:28:15.941Z,270.00
2019-05-01T10:29:13.146Z,337.50
2019-05-01T10:30:12.132Z,343.12
2019-05-01T10:31:13.189Z,416.25
2019-05-01T10:32:21.509Z,427.50
2019-05-01T10:33:13.097Z,433.12
2019-05-01T10:34:12.086Z,658.12
2019-05-01T10:35:14.140Z,534.38
2019-05-01T10:36:18.626Z,360.00
2019-05-01T10:37:13.073Z,382.50
2019-05-01T10:38:12.066Z,371.25
2019-05-01T10:39:16.086Z,360.00
2019-05-01T10:40:13.041Z,506.25
2019-05-01T10:41:12.009Z,478.12
2019-05-01T10:42:11.999Z,450.00
2019-05-01T10:43:17.025Z,506.25
2019-05-01T10:44:11.976Z,382.50
2019-05-01T10:45:11.969Z,405.00
2019-05-01T10:46:11.965Z,421.88
2019-05-01T10:47:11.949Z,472.50
2019-05-01T10:48:11.943Z,534.38
2019-05-01T10:49:11.917Z,562.50
2019-05-01T10:50:11.905Z,540.00
2019-05-01T10:51:11.895Z,753.75
2019-05-01T10:52:14.280Z,624.38
2019-05-01T10:53:11.885Z,483.75
2019-05-01T10:54:16.896Z,517.50
2019-05-01T10:55:11.848Z,652.50
2019-05-01T10:56:11.838Z,433.12
2019-05-01T10:57:13.024Z,360.00
2019-05-01T10:58:12.670Z,405.00
2019-05-01T10:59:12.806Z,478.12
2019-05-01T11:00:11.791Z,331.88
2019-05-01T11:01:11.811Z,405.00
2019-05-01T11:02:11.778Z,517.50
2019-05-01T11:03:11.776Z,759.38
2019-05-01T11:04:11.759Z,703.12
2019-05-01T11:05:16.758Z,540.00
2019-05-01T11:06:11.726Z,393.75
2019-05-01T11:07:11.715Z,388.12
2019-05-01T11:08:11.717Z,365.62
2019-05-01T11:09:11.702Z,354.38
2019-05-01T11:10:11.687Z,365.62
2019-05-01T11:11:11.668Z,641.25
2019-05-01T11:12:11.661Z,624.38
2019-05-01T11:13:11.656Z,691.88
2019-05-01T11:14:11.635Z,961.88
2019-05-01T11:15:11.629Z,1068.75
2019-05-01T11:16:16.646Z,646.88
2019-05-01T11:17:11.603Z,534.38
2019-05-01T11:18:11.603Z,624.38
2019-05-01T11:19:11.580Z,1389.38
2019-05-01T11:20:11.567Z,1321.88
2019-05-01T11:21:11.560Z,551.25
2019-05-01T11:22:11.545Z,348.75
2019-05-01T11:23:11.546Z,343.12
2019-05-01T11:24:11.523Z,343.12
2019-05-01T11:25:11.515Z,376.88
2019-05-01T11:26:11.503Z,495.00
2019-05-01T11:27:16.534Z,343.12
2019-05-01T11:28:11.491Z,315.00
2019-05-01T11:29:11.470Z,331.88
2019-05-01T11:30:11.457Z,506.25
2019-05-01T11:31:11.452Z,534.38
2019-05-01T11:32:11.435Z,849.38
2019-05-01T11:33:11.440Z,703.12
2019-05-01T11:34:11.413Z,455.62
2019-05-01T11:35:11.403Z,905.62
2019-05-01T11:36:11.392Z,630.00
2019-05-01T11:37:11.395Z,804.38
2019-05-01T11:38:16.416Z,888.75
2019-05-01T11:39:11.357Z,990.00
2019-05-01T11:40:11.348Z,1248.75
2019-05-01T11:41:11.338Z,551.25
2019-05-01T11:42:11.326Z,450.00
2019-05-01T11:43:11.319Z,444.38
2019-05-01T11:44:11.327Z,421.88
2019-05-01T11:45:11.361Z,433.12
2019-05-01T11:46:11.305Z,433.12
2019-05-01T11:47:11.271Z,371.25
2019-05-01T11:48:11.267Z,399.38
2019-05-01T11:49:16.301Z,748.12
2019-05-01T11:50:11.239Z,939.38
2019-05-01T11:51:11.232Z,703.12
2019-05-01T11:52:11.216Z,1665.00
2019-05-01T11:53:11.204Z,2638.12
2019-05-01T11:54:11.313Z,2362.50
2019-05-01T11:55:11.193Z,2610.00
2019-05-01T11:56:11.207Z,3127.50
2019-05-01T11:57:11.176Z,3335.62
2019-05-01T11:58:11.145Z,3352.50
2019-05-01T11:59:12.388Z,3301.88
2019-05-01T12:00:16.154Z,3431.25
2019-05-01T12:01:11.189Z,3571.88
2019-05-01T12:02:11.100Z,3600.00
2019-05-01T12:03:11.088Z,3526.88
2019-05-01T12:04:11.100Z,3566.25
2019-05-01T12:05:11.067Z,3577.50
2019-05-01T12:06:22.345Z,3555.00
2019-05-01T12:07:12.060Z,3600.00
2019-05-01T12:08:11.045Z,3504.38
2019-05-01T12:09:11.032Z,3448.12
2019-05-01T12:10:11.013Z,3324.38
2019-05-01T12:11:16.025Z,3065.62
2019-05-01T12:12:11.027Z,3031.88
2019-05-01T12:13:11.006Z,3155.62
2019-05-01T12:14:10.991Z,3223.12
2019-05-01T12:15:10.957Z,3223.12
2019-05-01T12:16:10.952Z,3183.75
2019-05-01T12:17:10.946Z,3060.00
2019-05-01T12:18:10.946Z,2998.12
2019-05-01T12:19:10.989Z,2851.88
2019-05-01T12:20:10.906Z,2835.00
2019-05-01T12:21:10.893Z,2970.00
2019-05-01T12:22:10.885Z,3037.50
2019-05-01T12:23:10.888Z,3076.88
2019-05-01T12:24:15.927Z,3043.12
2019-05-01T12:25:10.870Z,2947.50
2019-05-01T12:26:10.877Z,2998.12
2019-05-01T12:27:10.830Z,3121.88
2019-05-01T12:28:10.825Z,3054.38
2019-05-01T12:29:10.828Z,2818.12
2019-05-01T12:30:10.827Z,2795.62
2019-05-01T12:31:10.789Z,1980.00
2019-05-01T12:32:10.782Z,562.50
2019-05-01T12:33:10.764Z,253.12
2019-05-01T12:34:10.774Z,241.88
2019-05-01T12:35:10.745Z,236.25
2019-05-01T12:36:10.733Z,230.62
2019-05-01T12:37:15.742Z,225.00
2019-05-01T12:38:10.737Z,219.38
2019-05-01T12:39:10.762Z,219.38
2019-05-01T12:40:10.691Z,213.75
2019-05-01T12:41:10.678Z,213.75
2019-05-01T12:42:10.664Z,213.75
2019-05-01T12:43:12.322Z,208.12
2019-05-01T12:44:10.647Z,213.75
2019-05-01T12:45:10.653Z,213.75
2019-05-01T12:46:10.636Z,208.12